Terminal Aerodrome Forecast
Issued by NWS

Home | Current Version | Previous Version | Text Only | Print | Product List | Glossary On
Versions: 1 2 3 4 5 6 7 8 9 10 11 12
000
FTUS44 KTSA 092300
TAFXNA
TAF
KXNA 092328Z 1000/1024 36007KT P6SM FEW060 SCT250
     FM101000 00000KT P6SM SCT250
     FM101400 13005KT P6SM BKN250 PROB30 1018/1024 5SM -TSRA
      BKN050CB=

USA.gov is the U.S. government's official web portal to all federal, state and local government web resources and services.